Time;durP1;ratioP1;P1;durP2;ratioP2;P2;SDS_P1;SDS_P2;PMS_P1;PMS_P2;Temp;Humidity;BMP_temperature;BMP_pressure;BME280_temperature;BME280_humidity;BME280_pressure;Samples;Min_cycle;Max_cycle;Signal;HPM_P1;HPM_P2
2021/12/27 00:02:22;;;;;;;26.30;17.27;;;;;;;-4.87;65.38;100793.44;5029031;28;20242;-55
2021/12/27 00:04:50;;;;;;;29.10;18.70;;;;;;;-4.45;67.48;100781.47;5028521;28;20254;-57
2021/12/27 00:07:16;;;;;;;32.50;18.70;;;;;;;-4.54;67.54;100780.91;5029668;28;20304;-56
2021/12/27 00:09:43;;;;;;;30.40;18.00;;;;;;;-4.41;65.68;100788.53;5029338;28;20258;-55
2021/12/27 00:12:10;;;;;;;34.77;18.20;;;;;;;-3.78;64.92;100783.63;5028376;28;20236;-56
2021/12/27 00:14:36;;;;;;;31.63;17.73;;;;;;;-3.72;64.53;100783.94;5029127;28;20250;-56
2021/12/27 00:17:03;;;;;;;32.93;17.20;;;;;;;-4.55;65.82;100789.38;5029151;28;20293;-57
2021/12/27 00:19:31;;;;;;;37.47;19.00;;;;;;;-4.63;67.32;100782.94;5028888;28;20307;-57
2021/12/27 00:21:59;;;;;;;32.53;18.63;;;;;;;-3.82;64.09;100779.13;5031213;28;20238;-57
2021/12/27 00:24:25;;;;;;;33.20;18.00;;;;;;;-3.76;66.30;100775.19;5028995;28;20271;-56
2021/12/27 00:26:52;;;;;;;28.47;18.37;;;;;;;-4.08;64.86;100778.47;5028925;28;20234;-55
2021/12/27 00:29:19;;;;;;;40.80;19.50;;;;;;;-4.06;65.50;100765.75;5029958;28;20625;-57
2021/12/27 00:31:45;;;;;;;37.30;19.97;;;;;;;-4.61;64.99;100758.28;5030301;28;20238;-57
2021/12/27 00:34:11;;;;;;;38.10;18.47;;;;;;;-4.22;65.66;100764.84;5026394;28;20266;-54
2021/12/27 00:36:38;;;;;;;33.17;16.93;;;;;;;-4.13;64.25;100759.41;5029334;28;20262;-56
2021/12/27 00:39:06;;;;;;;32.17;20.27;;;;;;;-3.72;64.60;100748.94;5029403;28;20300;-55
2021/12/27 00:41:32;;;;;;;29.77;17.67;;;;;;;-4.26;63.34;100754.34;5029316;28;20262;-56
2021/12/27 00:43:58;;;;;;;35.60;19.33;;;;;;;-4.30;67.29;100747.28;5029738;28;20235;-56
2021/12/27 00:46:25;;;;;;;32.50;20.73;;;;;;;-4.51;66.29;100750.34;5029008;28;20267;-56
2021/12/27 00:48:51;;;;;;;34.80;18.50;;;;;;;-4.03;66.45;100741.19;5028618;28;20242;-56
2021/12/27 00:51:17;;;;;;;35.60;18.30;;;;;;;-3.52;67.12;100739.78;5028853;28;20304;-56
2021/12/27 00:53:44;;;;;;;37.13;19.80;;;;;;;-4.21;63.67;100750.34;5029533;28;20238;-55
2021/12/27 00:56:12;;;;;;;29.30;17.40;;;;;;;-3.87;66.25;100735.22;5028039;28;20295;-55
2021/12/27 00:58:38;;;;;;;30.87;19.77;;;;;;;-3.63;66.32;100754.56;5028579;28;20368;-56
2021/12/27 01:01:04;;;;;;;33.37;18.07;;;;;;;-4.04;66.19;100749.66;5028922;28;20242;-54
2021/12/27 01:03:30;;;;;;;33.63;18.70;;;;;;;-3.52;64.66;100741.47;5027650;28;20265;-54
2021/12/27 01:05:57;;;;;;;36.10;20.50;;;;;;;-3.18;65.36;100734.81;5028427;28;20270;-53
2021/12/27 01:08:23;;;;;;;32.43;20.60;;;;;;;-3.51;63.70;100732.94;5028379;28;20335;-54
2021/12/27 01:11:11;;;;;;;39.60;21.17;;;;;;;-4.51;63.24;100734.97;5027763;28;20300;-55
2021/12/27 01:13:42;;;;;;;39.90;21.23;;;;;;;-4.90;65.47;100734.34;5027799;28;20955;-54
2021/12/27 01:16:11;;;;;;;39.63;19.70;;;;;;;-4.37;67.84;100744.34;5027751;28;20258;-55
2021/12/27 01:18:40;;;;;;;31.30;19.67;;;;;;;-3.98;67.18;100732.06;5027696;28;20256;-54
2021/12/27 01:21:06;;;;;;;35.53;20.30;;;;;;;-3.72;64.64;100732.63;5029668;28;20261;-56
2021/12/27 01:23:32;;;;;;;32.27;20.33;;;;;;;-4.36;66.75;100724.72;5030859;28;20237;-53
2021/12/27 01:25:59;;;;;;;35.93;23.53;;;;;;;-4.58;65.49;100712.34;5027943;28;20277;-53
2021/12/27 01:28:25;;;;;;;36.40;21.23;;;;;;;-4.04;66.85;100705.19;5027037;28;20263;-57
2021/12/27 01:30:53;;;;;;;35.70;20.53;;;;;;;-4.52;65.00;100691.34;5028169;28;20219;-56
2021/12/27 01:33:21;;;;;;;44.27;21.07;;;;;;;-3.99;68.14;100707.22;5027714;28;20231;-57
2021/12/27 01:35:48;;;;;;;41.43;22.83;;;;;;;-4.57;64.65;100709.84;5027257;28;20281;-56
2021/12/27 01:38:15;;;;;;;36.67;21.53;;;;;;;-4.20;64.80;100695.75;5027883;28;20263;-56
2021/12/27 01:40:43;;;;;;;41.80;21.87;;;;;;;-4.53;66.89;100703.25;5027723;28;20290;-55
2021/12/27 01:43:11;;;;;;;45.90;23.53;;;;;;;-4.26;66.46;100695.41;5026570;28;20664;-55
2021/12/27 01:45:41;;;;;;;38.93;21.93;;;;;;;-4.75;67.28;100698.53;5027138;28;20236;-54
2021/12/27 01:48:09;;;;;;;43.57;22.03;;;;;;;-4.45;66.58;100704.59;5027179;28;20234;-57
2021/12/27 01:50:37;;;;;;;41.47;22.60;;;;;;;-4.22;67.81;100699.91;5029391;28;20295;-54
2021/12/27 01:53:04;;;;;;;39.90;23.73;;;;;;;-4.36;68.67;100705.09;5027469;28;20238;-53
2021/12/27 01:55:30;;;;;;;33.57;21.73;;;;;;;-3.95;67.50;100706.59;5026383;28;20254;-55
2021/12/27 01:57:57;;;;;;;42.67;22.77;;;;;;;-4.39;63.92;100714.28;5025841;28;20290;-55
2021/12/27 02:00:23;;;;;;;46.67;23.57;;;;;;;-4.52;65.09;100704.16;5025621;28;20243;-53
2021/12/27 02:02:50;;;;;;;50.93;25.07;;;;;;;-4.51;66.06;100696.53;5026302;28;20227;-55
2021/12/27 02:05:18;;;;;;;42.63;23.80;;;;;;;-4.16;67.01;100696.00;5025402;28;20331;-55
2021/12/27 02:07:44;;;;;;;50.53;22.73;;;;;;;-4.37;64.24;100698.22;5027262;28;20238;-55
2021/12/27 02:10:12;;;;;;;40.00;22.47;;;;;;;-4.32;65.81;100694.25;5026471;28;20299;-58
2021/12/27 02:12:39;;;;;;;36.27;22.77;;;;;;;-4.10;65.13;100682.66;5026764;28;20312;-54
2021/12/27 02:15:09;;;;;;;39.50;22.20;;;;;;;-3.85;66.81;100675.53;5024970;28;20694;-54
2021/12/27 02:17:36;;;;;;;40.00;22.73;;;;;;;-3.46;65.57;100659.69;5026046;28;20254;-55
2021/12/27 02:20:04;;;;;;;40.73;23.10;;;;;;;-3.48;63.04;100657.00;5022151;28;20947;-56
2021/12/27 02:22:35;;;;;;;41.33;22.00;;;;;;;-3.23;60.66;100660.88;5026603;28;20234;-56
2021/12/27 02:25:01;;;;;;;42.00;25.07;;;;;;;-3.93;62.92;100669.13;5026218;28;20738;-56
2021/12/27 02:27:27;;;;;;;43.20;22.40;;;;;;;-3.97;64.45;100664.59;5024556;28;20321;-56
2021/12/27 02:29:53;;;;;;;38.23;22.57;;;;;;;-4.37;66.15;100657.22;5018205;28;20237;-53
2021/12/27 02:32:20;;;;;;;43.33;22.73;;;;;;;-4.08;64.50;100656.28;5025726;28;20348;-58
2021/12/27 02:34:46;;;;;;;45.80;24.53;;;;;;;-3.67;63.92;100662.84;5025203;28;20674;-55
2021/12/27 02:37:14;;;;;;;40.33;23.07;;;;;;;-4.02;64.89;100660.91;5026070;28;20262;-54
2021/12/27 02:39:40;;;;;;;43.77;22.17;;;;;;;-4.11;64.17;100656.16;5026322;28;20552;-55
2021/12/27 02:42:07;;;;;;;38.07;22.83;;;;;;;-4.03;66.12;100648.88;5024892;28;20258;-55
2021/12/27 02:44:34;;;;;;;41.43;23.87;;;;;;;-4.04;64.93;100659.91;5025701;28;20261;-53
2021/12/27 02:47:01;;;;;;;35.30;21.73;;;;;;;-4.15;66.84;100658.44;5025507;28;20744;-53
2021/12/27 02:49:27;;;;;;;36.80;23.50;;;;;;;-3.77;62.85;100657.13;5024264;28;20308;-55
2021/12/27 02:51:53;;;;;;;44.43;24.33;;;;;;;-3.80;64.31;100662.09;5017787;28;20234;-52
2021/12/27 02:54:21;;;;;;;38.87;23.07;;;;;;;-3.96;65.31;100653.56;5025679;28;20252;-53
2021/12/27 02:56:49;;;;;;;41.47;22.33;;;;;;;-3.89;64.60;100647.97;5026105;28;20563;-55
2021/12/27 02:59:15;;;;;;;37.50;22.13;;;;;;;-4.43;64.68;100640.63;5024198;28;20260;-53
2021/12/27 03:01:41;;;;;;;43.00;23.20;;;;;;;-4.05;67.58;100629.97;5026380;28;20320;-53
2021/12/27 03:04:08;;;;;;;42.60;22.50;;;;;;;-3.99;66.66;100617.50;5025087;28;20242;-55
2021/12/27 03:06:34;;;;;;;38.57;23.17;;;;;;;-4.50;64.72;100623.13;5025669;28;20265;-54
2021/12/27 03:09:00;;;;;;;41.77;23.07;;;;;;;-3.85;67.66;100626.81;5026887;28;20280;-54
2021/12/27 03:11:28;;;;;;;43.10;23.53;;;;;;;-4.20;66.86;100636.81;5026331;28;20281;-53
2021/12/27 03:13:55;;;;;;;46.80;24.43;;;;;;;-3.16;64.46;100619.31;5024158;28;20255;-53
2021/12/27 03:16:23;;;;;;;53.37;25.13;;;;;;;-3.50;64.71;100617.56;5025783;28;20249;-55
2021/12/27 03:18:51;;;;;;;40.67;24.20;;;;;;;-3.96;64.04;100630.47;5026967;28;20644;-54
2021/12/27 03:21:18;;;;;;;39.30;22.87;;;;;;;-3.67;66.58;100621.81;5030047;28;20234;-57
2021/12/27 03:23:45;;;;;;;35.53;21.67;;;;;;;-4.02;62.85;100624.13;5029163;28;20887;-55
2021/12/27 03:26:12;;;;;;;42.43;23.40;;;;;;;-3.25;65.31;100616.31;5027628;28;20669;-56
2021/12/27 03:28:41;;;;;;;39.47;22.27;;;;;;;-4.34;64.17;100616.41;5027227;28;20304;-56
2021/12/27 03:31:08;;;;;;;37.37;22.10;;;;;;;-3.81;65.79;100609.03;5025128;28;20266;-54
2021/12/27 03:33:35;;;;;;;53.13;23.97;;;;;;;-3.87;62.69;100610.44;5024801;28;20262;-54
2021/12/27 03:36:04;;;;;;;46.20;23.87;;;;;;;-3.90;63.64;100605.16;5025641;28;20276;-56
2021/12/27 03:38:33;;;;;;;44.37;22.10;;;;;;;-4.18;66.39;100612.13;5025834;28;20238;-54
2021/12/27 03:40:59;;;;;;;39.70;23.03;;;;;;;-3.98;66.39;100597.84;5032333;28;20253;-55
2021/12/27 03:43:25;;;;;;;44.73;24.30;;;;;;;-4.08;64.23;100599.91;5025541;28;20235;-54
2021/12/27 03:45:53;;;;;;;38.93;23.77;;;;;;;-3.66;64.56;100589.31;5024612;28;20852;-55
2021/12/27 03:48:20;;;;;;;39.97;23.10;;;;;;;-3.89;64.61;100585.53;5023991;28;20258;-56
2021/12/27 03:50:46;;;;;;;37.53;22.27;;;;;;;-3.86;63.18;100589.16;5024896;28;20265;-53
2021/12/27 03:53:12;;;;;;;40.77;22.53;;;;;;;-4.10;64.91;100598.06;5025000;28;20235;-54
2021/12/27 03:55:39;;;;;;;42.67;23.37;;;;;;;-3.55;66.66;100593.34;5024494;28;20320;-55
2021/12/27 03:58:09;;;;;;;39.47;22.97;;;;;;;-3.57;65.91;100584.69;5023360;28;20319;-55
2021/12/27 04:00:47;;;;;;;36.40;22.50;;;;;;;-3.46;63.62;100588.72;5024456;28;20563;-56
2021/12/27 04:03:16;;;;;;;38.90;23.90;;;;;;;-3.15;63.17;100577.47;5024101;28;20304;-54
2021/12/27 04:05:42;;;;;;;41.37;23.20;;;;;;;-3.72;63.32;100579.66;5024401;28;21084;-53
2021/12/27 04:08:10;;;;;;;38.33;23.03;;;;;;;-3.26;64.01;100573.47;5024657;28;20704;-53
2021/12/27 04:10:38;;;;;;;41.10;24.00;;;;;;;-3.26;63.89;100570.91;5023957;28;20242;-53
2021/12/27 04:13:05;;;;;;;42.97;23.47;;;;;;;-3.09;62.22;100570.06;5023647;28;20337;-53
2021/12/27 04:15:32;;;;;;;39.17;21.70;;;;;;;-3.93;62.92;100569.13;5024210;28;20720;-55
2021/12/27 04:17:58;;;;;;;40.50;21.73;;;;;;;-3.53;65.20;100573.78;5024462;28;20901;-56
2021/12/27 04:20:26;;;;;;;50.80;23.93;;;;;;;-3.80;63.99;100564.63;5023854;28;20719;-54
2021/12/27 04:22:52;;;;;;;41.50;24.07;;;;;;;-3.94;64.85;100571.56;5024425;28;20255;-53
2021/12/27 04:25:20;;;;;;;48.00;23.77;;;;;;;-3.44;63.29;100558.88;5026476;28;20257;-57
2021/12/27 04:27:47;;;;;;;37.17;22.83;;;;;;;-4.05;63.36;100562.44;5027798;28;20234;-54
2021/12/27 04:30:14;;;;;;;42.33;23.20;;;;;;;-3.17;64.18;100553.38;5028587;28;20722;-51
2021/12/27 04:32:41;;;;;;;39.63;22.23;;;;;;;-2.83;64.08;100557.66;5028569;28;20254;-53
2021/12/27 04:35:08;;;;;;;39.73;23.67;;;;;;;-3.42;61.97;100541.00;5026577;28;20267;-54
2021/12/27 04:37:35;;;;;;;38.70;22.20;;;;;;;-3.18;65.32;100543.94;5028386;28;20290;-55
2021/12/27 04:40:04;;;;;;;42.43;23.40;;;;;;;-2.77;62.97;100547.66;5027933;28;20266;-54
2021/12/27 04:42:31;;;;;;;46.90;24.00;;;;;;;-3.50;64.02;100552.56;5027892;28;20664;-57
2021/12/27 04:44:58;;;;;;;38.73;22.47;;;;;;;-3.14;64.10;100557.00;5026525;28;20241;-54
2021/12/27 04:47:24;;;;;;;46.47;23.77;;;;;;;-3.29;63.39;100553.66;5027152;28;21041;-54
2021/12/27 04:49:50;;;;;;;45.70;24.43;;;;;;;-2.99;63.15;100551.75;5027257;28;20590;-56
2021/12/27 04:52:17;;;;;;;41.17;24.73;;;;;;;-3.05;63.65;100546.31;5027275;28;20246;-53
2021/12/27 04:54:45;;;;;;;41.43;23.67;;;;;;;-3.71;62.24;100544.59;5028069;28;20262;-52
2021/12/27 04:57:11;;;;;;;44.43;24.87;;;;;;;-3.69;64.39;100540.41;5025475;28;20708;-56
2021/12/27 04:59:38;;;;;;;46.90;24.63;;;;;;;-3.50;64.46;100534.59;5027323;28;20238;-54
2021/12/27 05:02:04;;;;;;;38.30;22.40;;;;;;;-3.52;65.52;100538.75;5026754;28;20746;-54
2021/12/27 05:04:31;;;;;;;41.73;24.20;;;;;;;-4.03;64.71;100551.47;5026395;28;20318;-56
2021/12/27 05:06:58;;;;;;;43.13;24.57;;;;;;;-3.94;66.80;100549.38;5026686;28;20238;-54
2021/12/27 05:09:24;;;;;;;42.60;23.70;;;;;;;-3.94;63.73;100543.38;5036264;28;20227;-53
2021/12/27 05:11:52;;;;;;;42.47;24.60;;;;;;;-3.72;63.80;100542.81;5027350;28;20227;-58
2021/12/27 05:14:18;;;;;;;45.53;25.60;;;;;;;-3.50;64.37;100538.03;5026347;28;20253;-55
2021/12/27 05:16:45;;;;;;;43.80;23.13;;;;;;;-3.56;65.87;100534.25;5026685;28;20329;-56
2021/12/27 05:19:11;;;;;;;48.43;23.30;;;;;;;-3.38;62.84;100530.06;5026015;28;20296;-55
2021/12/27 05:21:38;;;;;;;37.17;22.33;;;;;;;-3.53;64.89;100535.31;5029047;28;20226;-54
2021/12/27 05:24:05;;;;;;;43.07;23.40;;;;;;;-3.18;62.95;100526.84;5020025;28;20340;-53
2021/12/27 05:26:31;;;;;;;43.17;25.47;;;;;;;-3.63;64.13;100517.66;5026724;28;20246;-57
2021/12/27 05:28:58;;;;;;;46.47;25.20;;;;;;;-4.05;65.93;100511.16;5026816;28;20304;-55
2021/12/27 05:31:25;;;;;;;44.40;23.23;;;;;;;-3.99;66.31;100504.66;5026992;28;20296;-55
2021/12/27 05:33:51;;;;;;;39.13;24.40;;;;;;;-3.58;65.81;100503.38;5026334;28;20649;-57
2021/12/27 05:36:18;;;;;;;45.47;23.77;;;;;;;-3.62;66.09;100509.16;5025990;28;20304;-54
2021/12/27 05:38:44;;;;;;;37.63;21.97;;;;;;;-3.82;65.24;100497.88;5027455;28;20258;-54
2021/12/27 05:41:10;;;;;;;45.23;24.67;;;;;;;-4.02;66.78;100504.50;5026752;28;20267;-55
2021/12/27 05:43:37;;;;;;;43.03;23.77;;;;;;;-3.78;67.16;100507.50;5026809;28;20251;-56
2021/12/27 05:46:04;;;;;;;37.80;21.83;;;;;;;-3.24;66.39;100503.41;5026993;28;20325;-54
2021/12/27 05:48:31;;;;;;;39.30;22.87;;;;;;;-3.21;64.53;100505.25;5026906;28;20696;-57
2021/12/27 05:50:57;;;;;;;38.67;24.17;;;;;;;-3.31;64.55;100511.59;5027009;28;20574;-57
2021/12/27 05:53:23;;;;;;;44.07;23.20;;;;;;;-3.50;64.26;100502.09;5026473;28;20262;-55
2021/12/27 05:55:51;;;;;;;48.33;23.63;;;;;;;-3.57;66.28;100502.59;5026248;28;20262;-57
2021/12/27 05:58:17;;;;;;;40.13;22.57;;;;;;;-3.72;66.77;100509.47;5024867;28;20228;-54
2021/12/27 06:00:44;;;;;;;48.60;24.47;;;;;;;-3.08;65.38;100514.47;5027003;28;20315;-53
2021/12/27 06:03:11;;;;;;;41.77;23.70;;;;;;;-3.28;66.14;100505.75;5024995;28;20255;-57
2021/12/27 06:05:38;;;;;;;39.73;23.70;;;;;;;-3.04;64.50;100517.25;5025675;28;20727;-56
2021/12/27 06:08:05;;;;;;;41.17;24.53;;;;;;;-4.11;65.42;100504.00;5026053;28;20509;-56
2021/12/27 06:10:31;;;;;;;43.20;23.33;;;;;;;-3.93;67.31;100505.00;5026460;28;20316;-59
2021/12/27 06:12:57;;;;;;;38.60;23.00;;;;;;;-3.55;66.65;100500.09;5022012;28;20266;-57
2021/12/27 06:15:24;;;;;;;42.80;22.90;;;;;;;-3.62;67.20;100504.03;5021252;28;20312;-57
2021/12/27 06:17:50;;;;;;;46.70;23.87;;;;;;;-2.94;68.58;100498.06;5026075;28;20510;-54
2021/12/27 06:20:18;;;;;;;42.20;24.70;;;;;;;-2.79;64.09;100495.34;5025953;28;20227;-53
2021/12/27 06:22:47;;;;;;;43.37;24.07;;;;;;;-3.44;65.38;100493.81;5026777;28;20230;-53
2021/12/27 06:25:14;;;;;;;42.27;23.70;;;;;;;-2.72;65.12;100487.13;5025586;28;20293;-55
2021/12/27 06:27:41;;;;;;;41.20;24.23;;;;;;;-2.84;65.60;100490.00;5027547;28;20230;-56
2021/12/27 06:30:08;;;;;;;39.37;23.73;;;;;;;-3.49;66.05;100480.75;5028208;28;20258;-55
2021/12/27 06:32:36;;;;;;;39.07;23.93;;;;;;;-3.30;67.01;100481.69;5026526;28;20626;-53
2021/12/27 06:35:03;;;;;;;41.70;25.27;;;;;;;-3.08;68.00;100473.38;5025010;28;20230;-55
2021/12/27 06:37:30;;;;;;;40.03;24.60;;;;;;;-2.49;67.43;100475.34;5025430;28;20554;-53
2021/12/27 06:39:57;;;;;;;48.77;24.40;;;;;;;-2.37;64.81;100462.22;5025818;28;20277;-55
2021/12/27 06:42:23;;;;;;;38.80;23.27;;;;;;;-2.93;66.16;100480.13;5024283;28;20264;-56
2021/12/27 06:44:50;;;;;;;35.20;23.80;;;;;;;-3.04;65.46;100480.44;5024998;28;20262;-55
2021/12/27 06:47:16;;;;;;;38.97;23.93;;;;;;;-3.45;68.72;100476.66;5024266;28;20250;-57
2021/12/27 06:49:43;;;;;;;38.47;21.83;;;;;;;-2.93;67.66;100480.13;5025186;28;20234;-54
2021/12/27 06:52:11;;;;;;;41.47;24.07;;;;;;;-2.89;66.81;100484.63;5025184;28;20254;-54
2021/12/27 06:54:39;;;;;;;43.90;24.40;;;;;;;-2.62;67.68;100483.31;5025221;28;20314;-55
2021/12/27 06:57:06;;;;;;;44.07;22.90;;;;;;;-2.50;66.86;100487.31;5023651;28;20753;-55
2021/12/27 06:59:32;;;;;;;44.20;24.63;;;;;;;-2.58;66.67;100491.22;5024138;28;20312;-56
2021/12/27 07:01:59;;;;;;;42.07;23.90;;;;;;;-2.66;67.61;100479.72;5035390;28;20245;-56
2021/12/27 07:04:26;;;;;;;44.93;24.90;;;;;;;-2.85;66.74;100487.34;5025180;28;20493;-53
2021/12/27 07:06:53;;;;;;;42.67;23.17;;;;;;;-2.93;68.43;100479.25;5020608;28;20715;-54
2021/12/27 07:09:19;;;;;;;42.37;24.77;;;;;;;-3.07;66.56;100475.13;5025378;28;20288;-56
2021/12/27 07:11:47;;;;;;;59.20;25.30;;;;;;;-2.82;68.96;100482.34;5024986;28;20285;-54
2021/12/27 07:14:13;;;;;;;43.67;25.23;;;;;;;-3.51;68.88;100477.25;5024501;28;20235;-56
2021/12/27 07:16:40;;;;;;;46.17;23.17;;;;;;;-3.26;69.13;100486.19;5024781;28;20308;-55
2021/12/27 07:19:06;;;;;;;44.33;24.20;;;;;;;-3.08;69.88;100481.97;5024092;28;20337;-53
2021/12/27 07:21:32;;;;;;;35.50;24.20;;;;;;;-3.03;68.47;100472.78;5027124;28;20593;-55
2021/12/27 07:24:01;;;;;;;49.60;23.47;;;;;;;-2.37;68.75;100462.22;5025132;28;20235;-54
2021/12/27 07:26:27;;;;;;;35.83;20.57;;;;;;;-2.44;67.15;100469.63;5018956;28;20258;-52
2021/12/27 07:28:57;;;;;;;41.57;25.20;;;;;;;-2.33;65.77;100469.25;5035116;28;20243;-52
2021/12/27 07:31:24;;;;;;;41.47;23.63;;;;;;;-2.36;67.54;100471.69;5018029;28;20247;-52
2021/12/27 07:33:50;;;;;;;40.57;25.23;;;;;;;-2.67;67.41;100473.72;5021978;28;20285;-54
2021/12/27 07:36:17;;;;;;;49.07;25.63;;;;;;;-2.41;66.67;100466.34;5023812;28;20747;-52
2021/12/27 07:38:43;;;;;;;43.83;23.90;;;;;;;-2.01;67.80;100466.44;5025082;28;20695;-54
2021/12/27 07:41:10;;;;;;;45.23;24.90;;;;;;;-2.38;68.18;100460.47;5023658;28;20307;-53
2021/12/27 07:43:36;;;;;;;44.67;24.13;;;;;;;-2.75;69.49;100463.84;5023399;28;20781;-52
2021/12/27 07:46:04;;;;;;;42.13;25.50;;;;;;;-2.76;70.86;100462.09;5024012;28;20289;-54
2021/12/27 07:48:31;;;;;;;41.13;22.57;;;;;;;-2.67;70.33;100460.88;5024242;28;20272;-53
2021/12/27 07:50:58;;;;;;;45.73;24.27;;;;;;;-2.62;70.54;100465.34;5025186;28;20703;-56
2021/12/27 07:53:24;;;;;;;43.03;23.27;;;;;;;-2.34;70.72;100457.22;5022784;28;20569;-54
2021/12/27 07:55:51;;;;;;;36.13;22.77;;;;;;;-2.79;69.65;100472.22;5024395;28;20258;-55
2021/12/27 07:58:17;;;;;;;54.07;27.53;;;;;;;-2.36;69.70;100469.09;5023542;28;20662;-56
2021/12/27 08:00:45;;;;;;;39.43;24.43;;;;;;;-2.46;69.15;100460.06;5028849;28;20286;-55
2021/12/27 08:03:13;;;;;;;41.27;23.93;;;;;;;-2.32;69.18;100463.28;5028122;28;20242;-54
2021/12/27 08:05:39;;;;;;;43.43;25.67;;;;;;;-2.51;68.66;100470.16;5030382;28;20235;-52
2021/12/27 08:08:09;;;;;;;45.17;25.27;;;;;;;-2.57;69.34;100475.00;5029191;28;20404;-52
2021/12/27 08:10:36;;;;;;;47.13;24.33;;;;;;;-2.14;68.86;100474.44;5029438;28;20300;-51
2021/12/27 08:13:02;;;;;;;45.43;25.37;;;;;;;-1.62;67.58;100476.75;5028376;28;20727;-52
2021/12/27 08:15:29;;;;;;;39.87;24.07;;;;;;;-1.69;66.97;100472.13;5028088;28;20730;-53
2021/12/27 08:17:56;;;;;;;39.33;23.03;;;;;;;-2.42;67.81;100460.31;5024522;28;20277;-53
2021/12/27 08:20:23;;;;;;;43.80;24.97;;;;;;;-2.32;69.67;100465.88;5026784;28;20647;-52
2021/12/27 08:22:50;;;;;;;40.43;23.57;;;;;;;-1.65;67.85;100462.84;5039614;28;20265;-53
2021/12/27 08:25:17;;;;;;;44.77;23.83;;;;;;;-1.78;67.75;100456.31;5030690;28;20241;-52
2021/12/27 08:27:44;;;;;;;46.10;24.63;;;;;;;-1.74;67.45;100448.78;5028554;28;20917;-52
2021/12/27 08:30:11;;;;;;;41.77;24.30;;;;;;;-1.84;67.10;100461.19;5028121;28;20262;-53
2021/12/27 08:32:42;;;;;;;48.67;24.70;;;;;;;-1.77;68.02;100463.22;5028195;28;20277;-53
2021/12/27 08:35:10;;;;;;;49.33;27.10;;;;;;;-1.72;69.04;100459.13;5027096;28;20674;-52
2021/12/27 08:37:38;;;;;;;42.67;26.57;;;;;;;-2.03;70.52;100455.22;5028414;28;20289;-54
2021/12/27 08:40:06;;;;;;;39.53;24.17;;;;;;;-1.56;70.06;100450.41;5027617;28;20240;-55
2021/12/27 08:42:32;;;;;;;43.83;24.77;;;;;;;-2.12;70.08;100447.09;5027350;28;20301;-52
2021/12/27 08:45:00;;;;;;;42.40;25.20;;;;;;;-2.27;72.05;100456.69;5028219;28;20716;-53
2021/12/27 08:47:26;;;;;;;41.43;25.43;;;;;;;-2.29;71.07;100441.16;5027735;28;20294;-53
2021/12/27 08:49:53;;;;;;;44.90;23.37;;;;;;;-1.52;70.66;100452.28;5027480;28;20256;-53
2021/12/27 08:52:19;;;;;;;40.10;23.80;;;;;;;-2.24;71.17;100441.41;5027114;28;20295;-54
2021/12/27 08:54:47;;;;;;;47.17;23.87;;;;;;;-2.01;71.75;100443.28;5028241;28;20238;-60
2021/12/27 08:57:13;;;;;;;41.40;23.77;;;;;;;-2.55;72.58;100445.13;5026462;28;20277;-52
2021/12/27 08:59:40;;;;;;;40.30;23.40;;;;;;;-2.15;73.36;100449.50;5026179;28;20232;-53
2021/12/27 09:02:06;;;;;;;44.17;23.43;;;;;;;-2.21;72.35;100447.56;5027655;28;20670;-54
2021/12/27 09:04:33;;;;;;;43.63;23.17;;;;;;;-1.95;71.74;100447.84;5027284;28;20284;-52
2021/12/27 09:07:00;;;;;;;45.20;24.30;;;;;;;-1.79;71.13;100454.53;5027564;28;20238;-51
2021/12/27 09:09:26;;;;;;;49.20;24.70;;;;;;;-1.86;71.77;100448.25;5027517;28;20715;-52
2021/12/27 09:11:54;;;;;;;40.43;25.30;;;;;;;-1.63;70.95;100450.94;5027739;28;20258;-53
2021/12/27 09:14:20;;;;;;;44.27;23.30;;;;;;;-1.92;71.15;100441.16;5027833;28;20376;-52
2021/12/27 09:16:47;;;;;;;38.00;23.77;;;;;;;-1.38;70.26;100435.72;5028156;28;20258;-53
2021/12/27 09:19:14;;;;;;;41.13;24.10;;;;;;;-1.20;68.70;100433.03;5027418;28;20429;-53
2021/12/27 09:21:41;;;;;;;42.13;23.40;;;;;;;-1.52;69.84;100436.84;5030145;28;20589;-51
2021/12/27 09:24:07;;;;;;;41.60;23.50;;;;;;;-1.43;68.81;100429.50;5031088;28;20251;-53
2021/12/27 09:26:35;;;;;;;43.53;24.80;;;;;;;-1.35;69.28;100429.84;5032524;28;20235;-53
2021/12/27 09:29:03;;;;;;;40.73;24.60;;;;;;;-1.59;69.85;100435.69;5028069;28;20235;-55
2021/12/27 09:31:29;;;;;;;42.40;23.90;;;;;;;-1.83;71.83;100438.06;5026836;28;20262;-52
2021/12/27 09:33:56;;;;;;;40.00;23.67;;;;;;;-1.65;70.93;100435.44;5026641;28;20253;-55
2021/12/27 09:36:22;;;;;;;42.73;25.13;;;;;;;-1.42;70.46;100438.13;5026246;28;20331;-54
2021/12/27 09:38:48;;;;;;;36.90;23.53;;;;;;;-1.25;69.52;100430.28;5027111;28;20263;-53
2021/12/27 09:41:15;;;;;;;40.37;23.00;;;;;;;-1.41;69.16;100442.44;5026863;28;20266;-54
2021/12/27 09:43:41;;;;;;;48.17;24.53;;;;;;;-1.55;70.39;100427.28;5025884;28;20278;-55
2021/12/27 09:46:10;;;;;;;40.20;22.83;;;;;;;-1.20;70.14;100426.19;5026316;28;20288;-53
2021/12/27 09:48:36;;;;;;;39.60;22.33;;;;;;;-1.20;69.81;100418.44;5025973;28;20243;-55
2021/12/27 09:51:03;;;;;;;44.03;23.37;;;;;;;-1.31;69.69;100414.56;5026923;28;20312;-55
2021/12/27 09:53:29;;;;;;;41.27;25.30;;;;;;;-2.10;71.58;100406.91;5026660;28;20704;-53
2021/12/27 09:55:56;;;;;;;43.70;24.17;;;;;;;-1.52;72.83;100409.41;5026961;28;20290;-54
2021/12/27 09:58:22;;;;;;;41.07;23.53;;;;;;;-1.63;71.58;100414.91;5025635;28;20260;-54
2021/12/27 10:00:49;;;;;;;40.00;23.30;;;;;;;-1.23;70.30;100414.88;5027282;28;20234;-54
2021/12/27 10:03:16;;;;;;;38.07;22.77;;;;;;;-0.89;69.46;100408.50;5026438;28;20235;-53
2021/12/27 10:05:43;;;;;;;36.27;22.90;;;;;;;-0.82;69.17;100402.78;5026484;28;20405;-55
2021/12/27 10:08:09;;;;;;;39.17;24.47;;;;;;;-0.77;68.29;100403.84;5026603;28;20292;-54
2021/12/27 10:10:37;;;;;;;41.43;22.90;;;;;;;-0.88;68.38;100393.09;5026495;28;20656;-53
2021/12/27 10:13:07;;;;;;;40.40;23.57;;;;;;;-1.33;69.27;100405.91;5017584;28;20317;-55
2021/12/27 10:15:35;;;;;;;44.17;24.57;;;;;;;-1.09;68.86;100408.63;5026196;28;20238;-54
2021/12/27 10:18:08;;;;;;;37.10;22.37;;;;;;;-0.76;69.28;100401.31;5026309;28;20992;-51
2021/12/27 10:20:36;;;;;;;46.20;24.90;;;;;;;-1.53;69.67;100402.50;5024949;28;20232;-51
2021/12/27 10:23:02;;;;;;;36.30;23.40;;;;;;;-1.32;70.23;100393.91;5026875;28;20320;-53
2021/12/27 10:25:29;;;;;;;39.40;23.70;;;;;;;-1.38;70.95;100398.81;5026080;28;20246;-52
2021/12/27 10:27:59;;;;;;;40.30;24.17;;;;;;;-1.27;70.48;100382.97;5024282;28;20230;-52
2021/12/27 10:30:27;;;;;;;41.60;24.90;;;;;;;-1.49;72.59;100377.75;5026134;28;20289;-55
2021/12/27 10:33:03;;;;;;;45.53;24.53;;;;;;;-1.61;72.42;100378.13;5026136;28;20234;-54
2021/12/27 10:35:36;;;;;;;39.33;23.10;;;;;;;-1.57;71.83;100372.31;5025103;28;20706;-53
2021/12/27 10:38:12;;;;;;;35.60;22.87;;;;;;;-1.13;71.11;100357.75;5026555;28;20230;-52
2021/12/27 10:40:39;;;;;;;46.73;23.93;;;;;;;-1.04;70.45;100362.41;5028092;28;20306;-54
2021/12/27 10:43:05;;;;;;;43.77;24.23;;;;;;;-1.21;70.70;100374.63;5028038;28;20308;-53
2021/12/27 10:45:31;;;;;;;40.77;23.80;;;;;;;-1.45;72.73;100370.22;5029955;28;20262;-53
2021/12/27 10:48:00;;;;;;;41.93;23.30;;;;;;;-1.11;71.29;100355.25;5025879;28;20262;-52
2021/12/27 10:50:29;;;;;;;38.90;22.97;;;;;;;-1.07;71.92;100362.28;5022307;28;20239;-53
2021/12/27 10:52:59;;;;;;;38.90;22.67;;;;;;;-1.37;72.14;100357.69;5025953;28;20236;-52
2021/12/27 10:55:34;;;;;;;32.77;22.47;;;;;;;-0.87;71.19;100343.34;5026592;28;20521;-53
2021/12/27 10:58:13;;;;;;;38.67;22.57;;;;;;;-1.08;70.97;100345.97;5020699;28;20227;-55
2021/12/27 11:00:41;;;;;;;35.33;22.40;;;;;;;-1.10;72.14;100344.13;5024969;28;20277;-55
2021/12/27 11:03:08;;;;;;;36.73;22.97;;;;;;;-1.17;71.45;100343.00;5026492;28;20234;-56
2021/12/27 11:05:36;;;;;;;38.20;22.93;;;;;;;-0.88;70.92;100338.09;5024801;28;20287;-53
2021/12/27 11:08:05;;;;;;;42.13;23.30;;;;;;;-0.72;71.19;100348.19;5025684;28;20601;-54
2021/12/27 11:10:34;;;;;;;41.60;23.83;;;;;;;-1.21;71.81;100343.72;5026021;28;20251;-53